Main page
METAR-TAF:

METAR-TAF

Airports :

Middle Wallop, England

AAC Middle Wallop

latitude: 51-09N, longitude: 001-34W, elevation: 91 m

Current weather observation

The report was made 1 hour and 1 minutes ago, at 12:50 UTC
Wind 10 kt from the West/Southwest
Temperature 21°C
Humidity 69%
Pressure 1014 hPa
Visibility 10 km or more

METAR: EGVP 241250Z AUTO 25010KT 9999 // FEW024/// SCT039/// BKN080/// 21/15 Q1014

Time: 14:51 (13:51 UTC)

Forecast

The report was made 27 hours and 17 minutes ago, at 10:34 UTC
Forecast valid from 23 at 12 UTC to 23 at 16 UTC
Wind 12 kt from the West/Southwest
Visibility 10 km or more
Broken clouds at a height of 3200 ft

TAF: EGVP 231034Z 2312/2316 25012KT 9999 BKN032

Weather observations and forecasts of more than 4000 airports (METAR and TAF reports).

The available stations are represented by yellow and red dots on the map.

Hover mouse over dot to see the name of the station.

Then click to see weather observations and forecasts.

To change the map : click on the green buttons with a black cross to zoom in, on the green button with a dash to zoom out, or on the green arrows for adjacent maps.


METAR-TAF: